Thompson, Illinois
Current Conditions -  °F | °C
As of 1:55 PM on Sunday 23 Nov 2014 (Local Time) from KSFY Reporting Station
Drizzle Drizzle  
Wind Chill: 50°   Ceiling: 700
Heat Index: 50°   Visibility: 4mi
Dew Point: 48°   Wind: 13mph
Humidity: 94%   Direction: 140°SE
Pressure: 29.43"   Gusts: NA
Location:  41.9768°N, 90.0511°W
Report Text: KSFY 231955Z AUTO 14011KT 4SM DZ OVC007 10/09 A2943 RMK AO2 P0023 T01010091
Loading
Personal Weather Stations






























Interactive Weather Map New forecast layout! Learn more

10-Day Weather Forecast

Advertisements
Track Severe Weather on mobile